createdAt,value
2023-04-26T00:00:13.260Z,99.90
2023-04-26T00:02:40.543Z,99.90
2023-04-26T00:05:09.066Z,99.90
2023-04-26T00:07:38.029Z,99.90
2023-04-26T00:10:06.381Z,99.90
2023-04-26T00:12:33.204Z,99.90
2023-04-26T00:14:59.896Z,99.90
2023-04-26T00:17:26.547Z,99.90
2023-04-26T00:19:53.333Z,99.90
2023-04-26T00:22:20.130Z,99.90
2023-04-26T00:24:47.055Z,99.90
2023-04-26T00:27:13.672Z,99.90
2023-04-26T00:29:40.382Z,99.90
2023-04-26T00:32:07.044Z,99.90
2023-04-26T00:34:35.858Z,99.90
2023-04-26T00:37:03.363Z,99.90
2023-04-26T00:39:30.597Z,99.90
2023-04-26T00:41:58.006Z,99.90
2023-04-26T00:44:24.755Z,99.90
2023-04-26T00:46:53.724Z,99.90
2023-04-26T00:49:23.027Z,99.90
2023-04-26T00:51:51.899Z,99.90
2023-04-26T00:54:20.791Z,99.90
2023-04-26T00:56:48.254Z,99.90
2023-04-26T00:59:14.895Z,99.90
2023-04-26T01:01:42.622Z,99.90
2023-04-26T01:04:09.402Z,99.90
2023-04-26T01:06:38.341Z,99.90
2023-04-26T01:09:08.263Z,99.90
2023-04-26T01:11:36.977Z,99.90
2023-04-26T01:14:05.372Z,99.90
2023-04-26T01:16:33.325Z,99.90
2023-04-26T01:19:07.851Z,99.90
2023-04-26T01:21:34.469Z,99.90
2023-04-26T01:24:01.624Z,99.90
2023-04-26T01:26:28.244Z,99.90
2023-04-26T01:28:55.123Z,99.90
2023-04-26T01:31:22.089Z,99.90
2023-04-26T01:33:48.805Z,99.90
2023-04-26T01:36:15.475Z,99.90
2023-04-26T01:38:42.098Z,99.90
2023-04-26T01:41:08.708Z,99.90
2023-04-26T01:43:35.373Z,99.90
2023-04-26T01:46:02.134Z,99.90
2023-04-26T01:48:28.789Z,99.90
2023-04-26T01:50:55.422Z,99.90
2023-04-26T01:53:22.117Z,99.90
2023-04-26T01:55:48.725Z,99.90
2023-04-26T01:58:16.680Z,99.90
2023-04-26T02:00:43.298Z,99.90
2023-04-26T02:03:10.054Z,99.90
2023-04-26T02:05:36.717Z,99.90
2023-04-26T02:08:04.361Z,99.90
2023-04-26T02:10:30.988Z,99.90
2023-04-26T02:12:57.616Z,99.90
2023-04-26T02:15:24.205Z,99.90
2023-04-26T02:17:50.853Z,99.90
2023-04-26T02:20:17.609Z,99.90
2023-04-26T02:22:44.229Z,99.90
2023-04-26T02:25:11.778Z,99.90
2023-04-26T02:27:38.507Z,99.90
2023-04-26T02:30:05.871Z,99.90
2023-04-26T02:32:32.508Z,99.90
2023-04-26T02:34:59.230Z,99.90
2023-04-26T02:37:26.628Z,99.90
2023-04-26T02:39:53.391Z,99.90
2023-04-26T02:42:20.139Z,99.90
2023-04-26T02:44:46.810Z,99.90
2023-04-26T02:47:16.760Z,99.90
2023-04-26T02:49:43.389Z,99.90
2023-04-26T02:52:10.153Z,99.90
2023-04-26T02:54:36.746Z,99.90
2023-04-26T02:57:03.663Z,99.90
2023-04-26T02:59:30.290Z,99.90
2023-04-26T03:01:56.999Z,99.90
2023-04-26T03:04:23.794Z,99.90
2023-04-26T03:06:50.449Z,99.90
2023-04-26T03:09:17.694Z,99.90
2023-04-26T03:11:44.297Z,99.90
2023-04-26T03:14:10.903Z,99.90
2023-04-26T03:16:44.632Z,99.90
2023-04-26T03:19:11.497Z,99.90
2023-04-26T03:21:38.098Z,99.90
2023-04-26T03:24:05.151Z,99.90
2023-04-26T03:26:31.776Z,99.90
2023-04-26T03:28:58.395Z,99.90
2023-04-26T03:31:25.260Z,99.90
2023-04-26T03:33:52.022Z,99.90
2023-04-26T03:36:19.110Z,99.90
2023-04-26T03:38:45.984Z,99.90
2023-04-26T03:41:13.480Z,99.90
2023-04-26T03:43:40.105Z,99.90
2023-04-26T03:46:06.850Z,99.90
2023-04-26T03:48:36.466Z,99.90
2023-04-26T03:51:03.662Z,99.90
2023-04-26T03:53:30.268Z,99.90
2023-04-26T03:55:57.920Z,99.90
2023-04-26T03:58:27.542Z,99.90
2023-04-26T04:00:58.377Z,99.90
2023-04-26T04:03:25.428Z,99.90
2023-04-26T04:05:52.148Z,99.90
2023-04-26T04:08:18.742Z,99.90
2023-04-26T04:10:45.475Z,99.90
2023-04-26T04:13:12.113Z,99.90
2023-04-26T04:15:38.732Z,99.90
2023-04-26T04:18:05.537Z,99.90
2023-04-26T04:20:32.199Z,99.90
2023-04-26T04:22:58.871Z,99.90
2023-04-26T04:25:25.570Z,99.90
2023-04-26T04:27:53.253Z,99.90
2023-04-26T04:30:19.946Z,99.90
2023-04-26T04:32:46.706Z,99.90
2023-04-26T04:35:14.275Z,99.90
2023-04-26T04:37:40.915Z,99.90
2023-04-26T04:40:11.510Z,99.90
2023-04-26T04:42:38.525Z,99.90
2023-04-26T04:45:05.705Z,99.90
2023-04-26T04:47:36.196Z,99.90
2023-04-26T04:50:03.911Z,99.90
2023-04-26T04:52:30.672Z,99.90
2023-04-26T04:54:57.311Z,99.90
2023-04-26T04:57:24.019Z,99.90
2023-04-26T04:59:51.173Z,99.90
2023-04-26T05:02:17.961Z,99.90
2023-04-26T05:04:44.765Z,99.90
2023-04-26T05:07:12.760Z,99.90
2023-04-26T05:09:39.412Z,99.90
2023-04-26T05:12:06.137Z,99.90
2023-04-26T05:14:32.762Z,99.90
2023-04-26T05:16:59.536Z,99.90
2023-04-26T05:19:26.184Z,99.90
2023-04-26T05:21:53.075Z,99.90
2023-04-26T05:24:19.713Z,99.90
2023-04-26T05:26:46.326Z,99.90
2023-04-26T05:29:13.067Z,99.90
2023-04-26T05:31:39.692Z,99.90
2023-04-26T05:34:06.336Z,99.90
2023-04-26T05:36:33.109Z,99.90
2023-04-26T05:38:59.764Z,99.90
2023-04-26T05:41:26.614Z,99.90
2023-04-26T05:43:53.480Z,99.90
2023-04-26T05:46:20.323Z,99.90
2023-04-26T05:48:47.077Z,99.90
2023-04-26T05:51:13.684Z,99.90
2023-04-26T05:53:40.334Z,99.90
2023-04-26T05:56:07.338Z,99.90
2023-04-26T05:58:33.919Z,99.90
2023-04-26T06:01:00.753Z,99.90
2023-04-26T06:03:27.458Z,99.90
2023-04-26T06:05:54.434Z,99.90
2023-04-26T06:08:21.161Z,99.90
2023-04-26T06:10:47.812Z,99.90
2023-04-26T06:13:14.420Z,99.90
2023-04-26T06:15:41.000Z,99.90
2023-04-26T06:18:07.825Z,99.90
2023-04-26T06:20:34.529Z,99.90
2023-04-26T06:23:01.150Z,99.90
2023-04-26T06:25:27.866Z,99.90
2023-04-26T06:27:54.632Z,99.90
2023-04-26T06:30:21.268Z,99.90
2023-04-26T06:32:47.973Z,99.90
2023-04-26T06:35:14.734Z,99.90
2023-04-26T06:37:42.028Z,99.90
2023-04-26T06:40:09.248Z,99.90
2023-04-26T06:42:36.622Z,99.90
2023-04-26T06:45:03.422Z,99.90
2023-04-26T06:47:32.536Z,99.90
2023-04-26T06:49:59.627Z,99.90
2023-04-26T06:52:26.341Z,99.90
2023-04-26T06:54:56.939Z,99.90
2023-04-26T06:57:24.382Z,99.90
2023-04-26T06:59:51.300Z,98.60
2023-04-26T07:02:18.137Z,97.60
2023-04-26T07:04:45.300Z,96.80
2023-04-26T07:07:13.679Z,96.20
2023-04-26T07:09:40.913Z,95.30
2023-04-26T07:12:07.658Z,95.10
2023-04-26T07:14:37.144Z,94.30
2023-04-26T07:17:05.182Z,93.70
2023-04-26T07:19:31.897Z,93.50
2023-04-26T07:21:58.520Z,92.30
2023-04-26T07:24:25.709Z,90.70
2023-04-26T07:26:52.374Z,91.50
2023-04-26T07:29:19.177Z,91.40
2023-04-26T07:31:46.025Z,91.00
2023-04-26T07:34:13.032Z,89.20
2023-04-26T07:36:39.704Z,87.10
2023-04-26T07:39:06.706Z,83.80
2023-04-26T07:41:33.407Z,80.70
2023-04-26T07:44:00.169Z,80.50
2023-04-26T07:46:26.863Z,82.00
2023-04-26T07:48:53.504Z,80.60
2023-04-26T07:51:20.123Z,81.90
2023-04-26T07:53:46.753Z,80.40
2023-04-26T07:56:13.564Z,79.80
2023-04-26T07:58:40.207Z,75.80
2023-04-26T08:01:07.120Z,69.20
2023-04-26T08:03:34.107Z,68.10
2023-04-26T08:06:01.674Z,68.40
2023-04-26T08:08:28.932Z,67.10
2023-04-26T08:10:56.308Z,67.20
2023-04-26T08:13:23.258Z,66.50
2023-04-26T08:15:49.988Z,67.70
2023-04-26T08:18:16.627Z,66.30
2023-04-26T08:20:43.608Z,65.30
2023-04-26T08:23:10.503Z,64.10
2023-04-26T08:25:37.196Z,59.90
2023-04-26T08:28:04.878Z,58.60
2023-04-26T08:30:31.904Z,59.40
2023-04-26T08:32:58.688Z,58.20
2023-04-26T08:35:25.368Z,59.20
2023-04-26T08:37:51.958Z,57.90
2023-04-26T08:40:23.729Z,57.80
2023-04-26T08:42:52.373Z,56.60
2023-04-26T08:45:22.996Z,55.60
2023-04-26T08:47:52.845Z,56.00
2023-04-26T08:50:22.421Z,55.90
2023-04-26T08:52:51.579Z,54.80
2023-04-26T08:55:22.683Z,53.90
2023-04-26T08:57:50.645Z,51.90
2023-04-26T09:00:19.591Z,51.30
2023-04-26T09:02:48.719Z,50.00
2023-04-26T09:05:15.534Z,51.90
2023-04-26T09:07:46.025Z,51.90
2023-04-26T09:10:16.827Z,53.70
2023-04-26T09:12:43.714Z,53.10
2023-04-26T09:15:10.817Z,54.40
2023-04-26T09:17:39.058Z,54.20
2023-04-26T09:20:21.063Z,51.00
2023-04-26T09:22:49.101Z,50.10
2023-04-26T09:25:18.296Z,51.60
2023-04-26T09:27:45.902Z,50.30
2023-04-26T09:30:17.316Z,47.80
2023-04-26T09:32:45.174Z,50.20
2023-04-26T09:35:28.573Z,49.90
2023-04-26T09:38:01.116Z,49.40
2023-04-26T09:40:33.170Z,49.30
2023-04-26T09:43:11.888Z,48.90
2023-04-26T09:45:58.965Z,50.00
2023-04-26T09:48:34.522Z,48.40
2023-04-26T09:51:03.880Z,47.30
2023-04-26T09:53:48.000Z,47.40
2023-04-26T09:56:18.845Z,49.20
2023-04-26T09:58:58.836Z,45.30
2023-04-26T10:01:28.255Z,44.60
2023-04-26T10:03:57.382Z,45.50
2023-04-26T10:06:25.092Z,45.30
2023-04-26T10:08:52.025Z,47.00
2023-04-26T10:11:20.220Z,48.10
2023-04-26T10:13:46.842Z,47.40
2023-04-26T10:16:13.522Z,44.40
2023-04-26T10:18:40.505Z,44.90
2023-04-26T10:21:22.608Z,43.40
2023-04-26T10:23:49.846Z,42.90
2023-04-26T10:26:52.738Z,41.70
2023-04-26T10:29:20.794Z,39.20
2023-04-26T10:32:02.536Z,41.10
2023-04-26T10:34:31.195Z,39.40
2023-04-26T10:37:07.686Z,38.50
2023-04-26T10:39:34.764Z,40.00
2023-04-26T10:42:24.052Z,40.80
2023-04-26T10:44:55.606Z,40.40
2023-04-26T10:47:27.694Z,41.50
2023-04-26T10:50:09.687Z,41.10
2023-04-26T10:53:05.263Z,40.30
2023-04-26T10:55:40.183Z,37.90
2023-04-26T10:58:29.813Z,39.40
2023-04-26T11:01:16.335Z,43.50
2023-04-26T11:03:59.313Z,41.10
2023-04-26T11:06:26.798Z,39.70
2023-04-26T11:08:54.333Z,38.10
2023-04-26T11:11:26.827Z,39.40
2023-04-26T11:13:53.443Z,41.90
2023-04-26T11:16:20.099Z,40.60
2023-04-26T11:18:47.679Z,39.60
2023-04-26T11:21:17.429Z,39.80
2023-04-26T11:23:53.659Z,40.10
2023-04-26T11:26:20.247Z,41.40
2023-04-26T11:28:48.820Z,41.50
2023-04-26T11:31:15.455Z,41.00
2023-04-26T11:33:42.076Z,41.70
2023-04-26T11:36:08.858Z,42.00
2023-04-26T11:38:35.690Z,42.30
2023-04-26T11:41:03.505Z,42.30
2023-04-26T11:43:40.091Z,41.50
2023-04-26T11:46:08.379Z,41.70
2023-04-26T11:48:36.639Z,42.80
2023-04-26T11:51:04.884Z,42.50
2023-04-26T11:53:41.770Z,41.80
2023-04-26T11:56:17.991Z,41.20
2023-04-26T11:58:46.422Z,37.80
2023-04-26T12:01:24.446Z,38.90
2023-04-26T12:03:58.707Z,40.40
2023-04-26T12:06:29.615Z,42.30
2023-04-26T12:08:57.074Z,42.60
2023-04-26T12:11:23.758Z,43.00
2023-04-26T12:13:50.662Z,42.10
2023-04-26T12:18:51.902Z,39.70
2023-04-26T12:21:19.393Z,40.50
2023-04-26T12:23:48.044Z,41.20
2023-04-26T12:26:15.101Z,39.30
2023-04-26T12:28:41.945Z,38.50
2023-04-26T12:31:08.895Z,38.40
2023-04-26T12:33:36.401Z,39.40
2023-04-26T12:36:11.146Z,38.60
2023-04-26T12:38:38.553Z,38.40
2023-04-26T12:41:05.891Z,39.50
2023-04-26T12:43:32.784Z,38.90
2023-04-26T12:45:59.936Z,38.70
2023-04-26T12:48:26.778Z,37.70
2023-04-26T12:50:54.094Z,35.90
2023-04-26T12:53:21.055Z,37.20
2023-04-26T12:55:47.712Z,38.20
2023-04-26T12:58:14.573Z,35.60
2023-04-26T13:00:43.286Z,36.30
2023-04-26T13:03:14.292Z,36.60
2023-04-26T13:05:41.522Z,35.70
2023-04-26T13:08:08.342Z,35.60
2023-04-26T13:10:34.980Z,35.20
2023-04-26T13:13:01.756Z,37.30
2023-04-26T13:15:29.704Z,37.90
2023-04-26T13:17:56.509Z,37.50
2023-04-26T13:20:25.077Z,37.90
2023-04-26T13:22:52.982Z,37.90
2023-04-26T13:25:19.902Z,36.80
2023-04-26T13:27:46.754Z,37.20
2023-04-26T13:30:13.987Z,35.80
2023-04-26T13:32:41.130Z,35.00
2023-04-26T13:35:08.204Z,34.60
2023-04-26T13:37:34.786Z,34.30
2023-04-26T13:40:01.673Z,34.70
2023-04-26T13:42:28.423Z,35.10
2023-04-26T13:44:55.129Z,32.40
2023-04-26T13:47:21.924Z,32.60
2023-04-26T13:49:48.620Z,34.20
2023-04-26T13:52:15.538Z,36.00
2023-04-26T13:54:42.167Z,36.40
2023-04-26T13:57:08.872Z,35.30
2023-04-26T13:59:35.509Z,34.60
2023-04-26T14:02:02.278Z,36.00
2023-04-26T14:04:29.784Z,34.80
2023-04-26T14:06:57.033Z,33.40
2023-04-26T14:09:23.663Z,32.80
2023-04-26T14:12:04.449Z,31.30
2023-04-26T14:14:34.469Z,31.70
2023-04-26T14:17:01.552Z,35.00
2023-04-26T14:19:28.234Z,35.50
2023-04-26T14:21:54.833Z,34.90
2023-04-26T14:24:21.425Z,36.00
2023-04-26T14:26:48.199Z,36.50
2023-04-26T14:29:14.797Z,37.20
2023-04-26T14:31:42.042Z,37.60
2023-04-26T14:34:08.691Z,37.60
2023-04-26T14:36:35.603Z,38.70
2023-04-26T14:39:02.275Z,38.10
2023-04-26T14:41:28.874Z,38.40
2023-04-26T14:43:56.009Z,38.30
2023-04-26T14:46:22.863Z,34.90
2023-04-26T14:48:49.637Z,31.60
2023-04-26T14:51:16.260Z,31.60
2023-04-26T14:53:42.862Z,30.60
2023-04-26T14:56:09.587Z,30.60
2023-04-26T14:58:36.274Z,30.00
2023-04-26T15:01:03.460Z,30.90
2023-04-26T15:03:30.411Z,30.70
2023-04-26T15:05:57.139Z,30.40
2023-04-26T15:08:23.780Z,30.60
2023-04-26T15:10:51.366Z,30.90
2023-04-26T15:13:18.339Z,30.10
2023-04-26T15:15:45.285Z,30.80
2023-04-26T15:18:11.942Z,31.40
2023-04-26T15:20:40.316Z,33.00
2023-04-26T15:23:07.681Z,33.50
2023-04-26T15:25:36.414Z,32.90
2023-04-26T15:28:03.641Z,33.30
2023-04-26T15:30:30.678Z,33.80
2023-04-26T15:32:57.610Z,32.70
2023-04-26T15:35:24.859Z,33.00
2023-04-26T15:37:53.640Z,33.80
2023-04-26T15:40:21.179Z,34.20
2023-04-26T15:42:49.129Z,35.10
2023-04-26T15:45:15.914Z,35.30
2023-04-26T15:47:42.684Z,34.70
2023-04-26T15:50:09.755Z,33.80
2023-04-26T15:52:39.281Z,30.80
2023-04-26T15:55:09.859Z,30.00
2023-04-26T15:57:37.547Z,30.20
2023-04-26T16:00:08.177Z,29.70
2023-04-26T16:02:34.915Z,30.40
2023-04-26T16:05:01.837Z,31.70
2023-04-26T16:07:29.323Z,33.40
2023-04-26T16:09:56.076Z,34.40
2023-04-26T16:12:22.702Z,35.80
2023-04-26T16:14:51.113Z,37.00
2023-04-26T16:17:17.891Z,37.00
2023-04-26T16:19:44.480Z,36.30
2023-04-26T16:22:11.118Z,36.30
2023-04-26T16:24:37.727Z,37.30
2023-04-26T16:27:04.642Z,36.40
2023-04-26T16:29:31.458Z,35.50
2023-04-26T16:31:58.621Z,36.00
2023-04-26T16:34:26.739Z,35.20
2023-04-26T16:36:53.336Z,36.00
2023-04-26T16:39:20.117Z,36.10
2023-04-26T16:41:46.770Z,34.70
2023-04-26T16:44:13.386Z,33.80
2023-04-26T16:46:40.283Z,32.70
2023-04-26T16:49:09.626Z,33.10
2023-04-26T16:51:37.922Z,34.40
2023-04-26T16:54:04.914Z,35.60
2023-04-26T16:56:32.271Z,35.90
2023-04-26T16:58:59.300Z,35.50
2023-04-26T17:01:26.014Z,35.70
2023-04-26T17:03:53.304Z,36.40
2023-04-26T17:06:20.258Z,35.70
2023-04-26T17:08:47.384Z,37.50
2023-04-26T17:11:16.094Z,37.80
2023-04-26T17:13:43.215Z,38.50
2023-04-26T17:16:10.172Z,38.70
2023-04-26T17:18:37.162Z,39.60
2023-04-26T17:21:04.775Z,41.40
2023-04-26T17:23:32.776Z,41.30
2023-04-26T17:25:59.734Z,41.80
2023-04-26T17:28:26.652Z,42.50
2023-04-26T17:30:53.521Z,42.10
2023-04-26T17:33:20.511Z,41.90
2023-04-26T17:35:47.378Z,42.40
2023-04-26T17:38:14.009Z,42.70
2023-04-26T17:40:40.615Z,42.30
2023-04-26T17:43:07.225Z,43.20
2023-04-26T17:45:33.905Z,44.10
2023-04-26T17:48:00.566Z,44.40
2023-04-26T17:50:27.219Z,45.10
2023-04-26T17:52:54.060Z,46.20
2023-04-26T17:55:21.063Z,46.30
2023-04-26T17:57:47.713Z,46.80
2023-04-26T18:00:14.871Z,47.80
2023-04-26T18:02:42.020Z,48.10
2023-04-26T18:05:09.115Z,48.40
2023-04-26T18:07:35.955Z,48.70
2023-04-26T18:10:03.971Z,49.10
2023-04-26T18:12:31.773Z,49.80
2023-04-26T18:14:58.413Z,50.00
2023-04-26T18:17:25.641Z,50.20
2023-04-26T18:19:52.426Z,50.20
2023-04-26T18:22:19.483Z,50.90
2023-04-26T18:24:47.340Z,51.00
2023-04-26T18:27:14.259Z,51.20
2023-04-26T18:29:41.315Z,52.30
2023-04-26T18:32:07.982Z,52.80
2023-04-26T18:34:34.571Z,53.40
2023-04-26T18:37:01.301Z,53.40
2023-04-26T18:39:27.932Z,54.50
2023-04-26T18:41:54.564Z,55.10
2023-04-26T18:44:21.198Z,55.50
2023-04-26T18:46:48.110Z,56.40
2023-04-26T18:49:14.820Z,56.90
2023-04-26T18:51:41.680Z,57.50
2023-04-26T18:54:08.335Z,57.70
2023-04-26T18:56:34.986Z,58.20
2023-04-26T18:59:01.694Z,58.50
2023-04-26T19:01:28.573Z,59.00
2023-04-26T19:03:55.682Z,59.50
2023-04-26T19:06:22.471Z,59.90
2023-04-26T19:08:49.111Z,60.10
2023-04-26T19:11:15.796Z,60.20
2023-04-26T19:13:42.748Z,60.70
2023-04-26T19:16:10.032Z,61.60
2023-04-26T19:18:37.310Z,62.10
2023-04-26T19:21:08.154Z,62.50
2023-04-26T19:23:35.339Z,63.10
2023-04-26T19:26:06.786Z,63.10
2023-04-26T19:28:33.706Z,63.30
2023-04-26T19:31:01.459Z,63.50
2023-04-26T19:33:28.719Z,64.20
2023-04-26T19:35:58.467Z,64.80
2023-04-26T19:38:25.652Z,65.60
2023-04-26T19:40:52.879Z,66.20
2023-04-26T19:43:19.800Z,67.00
2023-04-26T19:45:46.778Z,67.20
2023-04-26T19:48:13.702Z,66.80
2023-04-26T19:50:46.144Z,67.10
2023-04-26T19:53:14.620Z,67.70
2023-04-26T19:55:42.301Z,68.50
2023-04-26T19:58:10.496Z,69.90
2023-04-26T20:00:38.409Z,70.70
2023-04-26T20:03:05.535Z,71.40
2023-04-26T20:05:32.359Z,72.90
2023-04-26T20:07:59.035Z,74.10
2023-04-26T20:10:25.954Z,75.20
2023-04-26T20:12:53.457Z,76.10
2023-04-26T20:15:20.202Z,76.30
2023-04-26T20:17:46.984Z,76.70
2023-04-26T20:20:14.222Z,77.20
2023-04-26T20:22:41.494Z,78.00
2023-04-26T20:25:08.538Z,78.70
2023-04-26T20:27:35.239Z,79.60
2023-04-26T20:30:02.322Z,80.40
2023-04-26T20:32:29.016Z,82.00
2023-04-26T20:34:55.669Z,83.10
2023-04-26T20:37:22.447Z,84.10
2023-04-26T20:39:49.283Z,84.40
2023-04-26T20:42:16.122Z,85.20
2023-04-26T20:44:43.076Z,86.30
2023-04-26T20:47:09.698Z,87.20
2023-04-26T20:49:36.508Z,88.60
2023-04-26T20:52:03.339Z,90.00
2023-04-26T20:54:29.978Z,90.60
2023-04-26T20:56:56.609Z,91.10
2023-04-26T20:59:25.165Z,91.30
2023-04-26T21:01:53.489Z,91.20
2023-04-26T21:04:20.558Z,91.30
2023-04-26T21:06:47.567Z,91.40
2023-04-26T21:09:14.358Z,91.60
2023-04-26T21:11:41.342Z,91.90
2023-04-26T21:14:08.956Z,92.60
2023-04-26T21:16:35.752Z,93.30
2023-04-26T21:19:02.494Z,93.90
2023-04-26T21:21:29.089Z,94.40
2023-04-26T21:23:55.810Z,94.50
2023-04-26T21:26:22.458Z,94.50
2023-04-26T21:28:49.188Z,95.00
2023-04-26T21:31:15.966Z,95.50
2023-04-26T21:33:42.597Z,96.00
2023-04-26T21:36:09.345Z,96.20
2023-04-26T21:38:39.602Z,96.00
2023-04-26T21:41:06.590Z,96.20
2023-04-26T21:43:33.270Z,96.50
2023-04-26T21:45:59.930Z,96.60
2023-04-26T21:48:26.702Z,97.10
2023-04-26T21:50:53.424Z,97.00
2023-04-26T21:53:20.397Z,97.10
2023-04-26T21:55:54.023Z,97.30
2023-04-26T21:58:21.533Z,97.40
2023-04-26T22:00:48.932Z,97.80
2023-04-26T22:03:20.047Z,97.90
2023-04-26T22:05:46.879Z,98.00
2023-04-26T22:08:13.558Z,98.10
2023-04-26T22:10:40.351Z,98.00
2023-04-26T22:13:06.952Z,98.00
2023-04-26T22:15:33.610Z,98.00
2023-04-26T22:18:00.216Z,98.10
2023-04-26T22:20:26.860Z,98.30
2023-04-26T22:22:53.869Z,98.60
2023-04-26T22:25:21.022Z,99.10
2023-04-26T22:27:48.058Z,99.50
2023-04-26T22:30:25.032Z,99.30
2023-04-26T22:32:54.776Z,99.70
2023-04-26T22:35:22.118Z,99.60
2023-04-26T22:37:48.823Z,99.70
2023-04-26T22:40:16.107Z,99.60
2023-04-26T22:42:42.963Z,99.30
2023-04-26T22:45:11.039Z,99.50
2023-04-26T22:47:37.950Z,99.40
2023-04-26T22:50:06.000Z,99.40
2023-04-26T22:52:32.793Z,99.50
2023-04-26T22:55:00.188Z,99.80
2023-04-26T22:57:28.404Z,99.90
2023-04-26T22:59:55.120Z,99.90
2023-04-26T23:02:21.863Z,99.90
2023-04-26T23:04:48.538Z,99.90
2023-04-26T23:07:16.270Z,99.90
2023-04-26T23:09:42.953Z,99.90
2023-04-26T23:12:09.777Z,99.90
2023-04-26T23:14:37.584Z,99.90
2023-04-26T23:17:04.386Z,99.90
2023-04-26T23:19:31.410Z,99.90
2023-04-26T23:21:58.031Z,99.90
2023-04-26T23:24:24.657Z,99.90
2023-04-26T23:26:51.280Z,99.90
2023-04-26T23:29:17.863Z,99.90
2023-04-26T23:31:44.670Z,99.90
2023-04-26T23:34:11.342Z,99.90
2023-04-26T23:36:38.008Z,99.90
2023-04-26T23:39:04.630Z,99.90
2023-04-26T23:41:31.266Z,99.90
2023-04-26T23:43:57.887Z,99.90
2023-04-26T23:46:24.607Z,99.90
2023-04-26T23:48:51.217Z,99.90
2023-04-26T23:51:17.839Z,99.90
2023-04-26T23:53:44.921Z,99.90
2023-04-26T23:56:11.651Z,99.90
2023-04-26T23:58:38.379Z,99.90
